Terminal Aerodrome Forecast
Issued by NWS St Louis, MO

Home | Current Version | Previous Version | Text Only | Print | Product List | Glossary On
Versions: 1 2 3 4 5 6 7 8 9 10 11 12 13 14 15 16 17 18 19 20 21
000
FTUS43 KLSX 192300
TAFCOU
TAF
KCOU 192328Z 2000/2024 12005KT P6SM OVC014
     FM200400 15004KT 5SM BR BKN007 OVC012
     FM201100 16004KT 3SM BR OVC004
     FM201600 17006KT 5SM BR OVC007
     FM201900 20006KT 6SM BR OVC010=

USA.gov is the U.S. government's official web portal to all federal, state and local government web resources and services.